Tiempo atmosférico en la estación meteorológica de Aldeanueva de Serrezuela, Segovia (1135 m.)



Fecha
DESCASC
Temp. máxima en grados centígrados (hora)
DESCASC
Temp. mínima en grados centígrados (hora)
DESCASC
Temp. media en grados centígrados
DESCASC
Racha de viento máxima en m/sg (hora)
DESCASC
Velocidad máxima media en intervalos de 10 minutos(hora)
DESCASC
Precipitaciones diarias en mm
DESCASC
Precipitaciones de 00:00 a 06:00 en mm
DESCASC
Precipitaciones de 06:00 a 12:00 en mm
DESCASC
Precipitaciones de 12:00 a 18:00 en mm
DESCASC
Precipitaciones de 18:00 a 24:00 en mm
DESCASC
08-12-2019 7.5 (20:10) 3.4 (07:50) 5.5 10.56 (12:20) 7.22 (12:20) 3 0 0 2.8 0.2
07-12-2019 10.1 (15:10) 3 (01:40) 6.6 5 (23:00) 3.61 (23:10) 0 0 0 0 0
06-12-2019 9.5 (15:00) 3.2 (08:30) 6.4 10.83 (00:30) 6.11 (00:30) 0 0 0 0 0
05-12-2019 9.1 (14:40) 1.5 (00:00) 5.3 11.94 (23:40) 7.22 (13:40) 0 0 0 0 0
04-12-2019 7.3 (13:40) 1.7 (23:50) 4.5 11.11 (09:10) 6.11 (08:00) 0 0 0 0 0
03-12-2019 4.5 (14:30) -3.2 (-00:0) 0.6 8.61 (23:30) 6.11 (23:30) 0 0 0 0 0
02-12-2019 7 (15:20) -1.6 (-00:0) 2.7 10 (11:50) 6.67 (11:30) 0.2 0 0.2 0 0
01-12-2019 5.7 (14:10) 2.8 (00:00) 4.2 8.89 (02:10) 6.11 (02:00) 2.2 0 0.4 1.8 0
30-11-2019 12.4 (13:40) 2.8 (00:00) 7.6 18.06 (14:00) 11.11 (13:50) 14.6 1.8 0 11 1.8
29-11-2019 11 (14:40) 8.1 (00:00) 9.6 12.5 (00:10) 8.61 (00:10) 7.4 4.2 2.6 0 0.6
28-11-2019 9.5 (14:50) 6.4 (05:30) 8 16.67 (01:30) 11.11 (18:10) 0.6 0.2 0.2 0.2 0
27-11-2019 9.2 (14:00) 4.9 (00:00) 7 17.78 (02:00) 11.39 (02:10) 0 0 0 0 0
26-11-2019 13.7 (13:40) 7.6 (00:00) 10.6 22.78 (22:40) 13.89 (22:40) 3 0 0.8 0.2 2
25-11-2019 10.3 (14:50) 7.2 (00:10) 8.8 17.5 (03:30) 11.39 (03:30) 2.2 2 0 0.2 0
24-11-2019 7.3 (23:59) 1.4 (00:00) 4.4 13.89 (23:40) 9.17 (23:40) 0.2 0 0 0 0.2
23-11-2019 6.6 (17:00) 1.4 (00:00) 4 18.61 (03:00) 12.22 (02:30) 3 3 0 0 0
22-11-2019 10.7 (16:10) 3.7 (00:00) 7.2 20.83 (13:30) 12.22 (17:00) 8 0.6 2.6 3.8 1
21-11-2019 6 (14:50) 2.7 (00:00) 4.4 10.83 (14:20) 7.22 (14:20) 4.8 0.2 3 1.6 0
20-11-2019 6.2 (11:20) 2.3 (06:30) 4.2 8.61 (18:20) 5.28 (18:00) 2.4 0 0 1.6 0.8
19-11-2019 6.2 (13:00) -0.5 (-00:0) 2.8 6.94 (14:30) 4.17 (14:20) 0 0 0 0 0
18-11-2019 3.8 (16:00) 0.4 (00:00) 2.1 7.5 (13:00) 4.44 (12:50) 0.2 0 0.2 0 0
17-11-2019 5.8 (15:40) -0.5 (-00:0) 2.7 13.89 (16:00) 8.89 (12:30) 8 0 2.8 5.2 0
16-11-2019 4.1 (14:40) -2 (-00:0) 1 11.39 (15:10) 8.33 (14:50) 0.2 0 0 0.2 0
15-11-2019 2.9 (16:40) -0.5 (-00:0) 1.2 11.67 (12:50) 7.5 (14:20) 3.2 0.2 0.6 2.4 0
14-11-2019 5.6 (00:00) -0.1 (00:00) 2.7 18.61 (03:10) 11.67 (03:10) 7.6 4.6 0.8 0.6 1.6
13-11-2019 9.1 (15:30) 4.7 (00:00) 6.9 17.5 (02:20) 10.83 (23:59) 10.2 9.4 0.8 0 0
12-11-2019 6.6 (23:59) 0.7 (00:00) 3.6 15.28 (23:20) 9.44 (23:20) 5.4 0 0 0.2 5.2
11-11-2019 6.1 (13:40) 0.6 (02:30) 3.3 10.83 (11:50) 6.67 (11:50) 1.4 0.4 0.8 0.2 0

Gráficas

Temp. máximas Temp. mínimas Temp. medias Precipitaciones Rachas de viento máximas Velocidades máximas media en intervalos de 10 minutos

Datos horarios

Fecha y hora oficial Temperatura (ºC) Velocidad del viento (km/h) Dirección del viento Racha (km/h) Dirección de racha Precipitación (mm) Presión (hPa) Tendencia (hPa) Humedad (%)
2019-12-10 23:00:00 6.1 17 Sudoeste 24 Sudoeste 0 -- -- 58
2019-12-10 22:00:00 6.3 15 Sudoeste 21 Sudoeste 0 -- -- 53
2019-12-10 21:00:00 6.6 13 Sudoeste 21 Sudoeste 0 -- -- 45
2019-12-10 20:00:00 6.9 14 Sudoeste 20 Sudoeste 0 -- -- 44
2019-12-10 19:00:00 5.1 8 Sudoeste 12 Oeste 0 -- -- 72
2019-12-10 18:00:00 7 5 Oeste 18 Sudoeste 0 -- -- 57
2019-12-10 17:00:00 6.8 7 Sudoeste 12 Oeste 0 -- -- 73
2019-12-10 16:00:00 8 5 Oeste 12 Oeste 0 -- -- 65
2019-12-10 15:00:00 9.6 4 Sudoeste 13 Oeste 0 -- -- 64
2019-12-10 14:00:00 9.9 5 Oeste 10 Oeste 0 -- -- 56
2019-12-10 13:00:00 8.6 4 Oeste 9 Noroeste 0 -- -- 60
2019-12-10 12:00:00 7.2 5 Noroeste 9 Oeste 0 -- -- 66
2019-12-10 11:00:00 6.7 3 Sudoeste 6 Sudoeste 0 -- -- 68
2019-12-10 10:00:00 4.6 4 Sudoeste 8 Sudoeste 0 -- -- 75
2019-12-10 09:00:00 3.1 5 Sudoeste 9 Sudoeste 0 -- -- 77
2019-12-10 08:00:00 2.3 9 Sudoeste 13 Sur 0 -- -- 88
2019-12-10 07:00:00 1.2 3 Sudeste 5 Sudoeste 0 -- -- 93
2019-12-10 06:00:00 1.9 0 Calma 5 Sudeste 0 -- -- 95
2019-12-10 05:00:00 1.5 6 Sudeste 14 Sudeste 0 -- -- 97
2019-12-10 04:00:00 1 5 Sudeste 6 Sudeste 0 -- -- 94
2019-12-10 03:00:00 2.1 0 Calma 6 Norte 0 -- -- 96
2019-12-10 02:00:00 2 5 Norte 8 Nordeste 0 -- -- 95
2019-12-10 01:00:00 2.5 0 Calma 3 Este 0 -- -- 92
2019-12-10 00:00:00 2.2 2 Este 8 Este 0 -- -- 97
2019-12-09 23:00:00 2.1 4 Este 6 Este 0 -- -- 94
2019-12-09 22:00:00 2.6 0 Calma 12 Este 0 -- -- 95
2019-12-09 21:00:00 2.2 8 Este 12 Nordeste 0 -- -- 93
2019-12-09 20:00:00 2.5 5 Este 7 Este 0 -- -- 93
2019-12-09 19:00:00 3.4 0 Calma 5 Este 0 -- -- 87
2019-12-09 18:00:00 4.6 4 Noroeste 8 Noroeste 0 -- -- 86
2019-12-09 17:00:00 5.8 6 Noroeste 17 Oeste 0 -- -- 80
2019-12-09 16:00:00 6.8 12 Oeste 22 Oeste 0 -- -- 75
2019-12-09 15:00:00 7.1 13 Oeste 22 Oeste 0 -- -- 71
2019-12-09 14:00:00 7.2 13 Oeste 28 Oeste 0 -- -- 70
2019-12-09 13:00:00 7 17 Oeste 29 Sudoeste 0 -- -- 76
2019-12-09 12:00:00 6.5 19 Sudoeste 35 Sudoeste 0 -- -- 87
2019-12-09 11:00:00 5.3 23 Sudoeste 37 Sudoeste 0 -- -- 86
2019-12-09 10:00:00 4.2 26 Sudoeste 38 Sudoeste 0 -- -- 99
2019-12-09 09:00:00 3 22 Sudoeste 33 Sudoeste 0 -- -- 100
2019-12-09 08:00:00 3.1 20 Sudoeste 32 Sudoeste 0 -- -- 100
2019-12-09 07:00:00 4.2 21 Sudoeste 33 Sudoeste 0 -- -- 100
2019-12-09 06:00:00 4.2 20 Sudoeste 33 Sudoeste 0 -- -- 100
2019-12-09 05:00:00 4.1 26 Sudoeste 41 Oeste 0 -- -- 100
2019-12-09 04:00:00 4.9 21 Sudoeste 33 Sudoeste 0.2 -- -- 100
2019-12-09 03:00:00 5.3 20 Sudoeste 32 Sudoeste 0 -- -- 100
2019-12-09 02:00:00 5.6 18 Sudoeste 30 Sudoeste 0 -- -- 100
2019-12-09 01:00:00 5.7 12 Oeste 22 Oeste 0 -- -- 100
2019-12-09 00:00:00 5.6 12 Sudoeste 16 Oeste 0 -- -- 100
2019-12-08 23:00:00 6.2 8 Oeste 16 Oeste 0 -- -- 100
2019-12-08 22:00:00 6.9 10 Noroeste 17 Oeste 0.2 -- -- 100
2019-12-08 21:00:00 7.3 10 Oeste 20 Oeste 0 -- -- 100
2019-12-08 20:00:00 7.4 13 Oeste 25 Oeste 0 -- -- 100
2019-12-08 19:00:00 7.2 14 Sudoeste 29 Oeste 0 -- -- 100
2019-12-08 18:00:00 7 19 Sudoeste 32 Sudoeste 1.2 -- -- 100
2019-12-08 17:00:00 6.8 20 Sudoeste 33 Sudoeste 0.4 -- -- 100
2019-12-08 16:00:00 6.9 18 Sudoeste 30 Sudoeste 0.4 -- -- 100
2019-12-08 15:00:00 6.6 17 Sudoeste 29 Sudoeste 0.6 -- -- 100
2019-12-08 14:00:00 5.8 19 Sudoeste 31 Sudoeste 0.2 -- -- 100
2019-12-08 13:00:00 6.4 21 Sudoeste 38 Sudoeste 0 -- -- 94
2019-12-08 12:00:00 6.6 23 Sudoeste 31 Sudoeste 0 -- -- 91
2019-12-08 11:00:00 6.6 17 Sudoeste 28 Sudoeste 0 -- -- 90
2019-12-08 10:00:00 6 18 Sudoeste 31 Sudoeste 0 -- -- 90
2019-12-08 09:00:00 5.4 21 Sudoeste 30 Sudoeste 0 -- -- 95
2019-12-08 08:00:00 3.6 19 Sudoeste 27 Sudoeste 0 -- -- 99
2019-12-08 07:00:00 4.3 17 Sudoeste 26 Sudoeste 0 -- -- 94
2019-12-08 06:00:00 4.7 16 Sudoeste 23 Sudoeste 0 -- -- 95
2019-12-08 05:00:00 4.8 14 Sudoeste 23 Sudoeste 0 -- -- 93
2019-12-08 04:00:00 4.4 16 Sudoeste 23 Oeste 0 -- -- 92
2019-12-08 03:00:00 5.3 13 Sudoeste 21 Sudoeste 0 -- -- 92
2019-12-08 02:00:00 5.5 15 Sudoeste 21 Sudoeste 0 -- -- 91
2019-12-08 01:00:00 5.6 10 Sudoeste 17 Sudoeste 0 -- -- 90
2019-12-08 00:00:00 5.7 12 Sudoeste 17 Sudoeste 0 -- -- 89
2019-12-07 23:00:00 5.9 12 Sudoeste 18 Sudoeste 0 -- -- 88
2019-12-07 22:00:00 5.9 10 Sudoeste 13 Sudoeste 0 -- -- 88
2019-12-07 21:00:00 5.7 10 Sudoeste 12 Sudoeste 0 -- -- 88
2019-12-07 20:00:00 5.7 8 Sudoeste 12 Sudoeste 0 -- -- 81
2019-12-07 19:00:00 5.6 6 Sudoeste 9 Sur 0 -- -- 81
2019-12-07 18:00:00 7 4 Sur 8 Oeste 0 -- -- 84
2019-12-07 17:00:00 8.9 5 Oeste 13 Noroeste 0 -- -- 78
2019-12-07 16:00:00 9.6 9 Noroeste 14 Oeste 0 -- -- 71
2019-12-07 15:00:00 10 8 Oeste 15 Oeste 0 -- -- 71
2019-12-07 14:00:00 9.5 7 Oeste 14 Noroeste 0 -- -- 80
2019-12-07 13:00:00 8.7 5 Noroeste 13 Noroeste 0 -- -- 82
2019-12-07 12:00:00 8.3 3 Noroeste 10 Noroeste 0 -- -- 80
2019-12-07 11:00:00 7.9 5 Oeste 6 Oeste 0 -- -- 79
2019-12-07 10:00:00 6.1 3 Sur 4 Sur 0 -- -- 88
2019-12-07 09:00:00 4.6 2 Sur 3 Sur 0 -- -- 94
2019-12-07 08:00:00 4.4 0 Calma 3 Sudeste 0 -- -- 90
2019-12-07 07:00:00 4 2 Este 7 Sudeste 0 -- -- 93
2019-12-07 06:00:00 4.3 3 Sudeste 10 Sur 0 -- -- 91
2019-12-07 05:00:00 4.7 8 Sur 10 Sur 0 -- -- 89
2019-12-07 04:00:00 4.9 5 Sudoeste 6 Sudoeste 0 -- -- 92
2019-12-07 03:00:00 4.8 2 Sudoeste 11 Sudeste 0 -- -- 94
2019-12-07 02:00:00 3.5 5 Sudeste 7 Sudeste 0 -- -- 98
2019-12-07 01:00:00 3.7 2 Este 3 Nordeste 0 -- -- 94
2019-12-07 00:00:00 4.9 2 Oeste 10 Sur 0 -- -- 93
2019-12-06 23:00:00 5 5 Sur 9 Sur 0 -- -- 92
2019-12-06 22:00:00 4.5 2 Este 4 Sudeste 0 -- -- 92
2019-12-06 21:00:00 5 0 Calma 6 Sudeste 0 -- -- 92
2019-12-06 20:00:00 4.4 3 Este 5 Sudeste 0 -- -- 90
2019-12-06 19:00:00 4.4 5 Sudeste 7 Sudeste 0 -- -- 93
2019-12-06 18:00:00 6.6 0 Calma 7 Norte 0 -- -- 83
2019-12-06 17:00:00 8.2 3 Norte 10 Noroeste 0 -- -- 78
2019-12-06 16:00:00 9.4 4 Noroeste 14 Noroeste 0 -- -- 76
2019-12-06 15:00:00 9.5 8 Oeste 13 Oeste 0 -- -- 76
2019-12-06 14:00:00 8.9 5 Norte 10 Noroeste 0 -- -- 77
2019-12-06 13:00:00 8.3 6 Noroeste 13 Noroeste 0 -- -- 79
2019-12-06 12:00:00 8.6 8 Noroeste 13 Noroeste 0 -- -- 78
2019-12-06 11:00:00 8.3 0 Calma 8 Sudeste 0 -- -- 77
2019-12-06 10:00:00 6.4 3 Sur 10 Sudeste 0 -- -- 85
2019-12-06 09:00:00 3.2 7 Sudeste 9 Sudeste 0 -- -- 92
2019-12-06 08:00:00 3.7 3 Sudeste 17 Sudeste 0 -- -- 89
2019-12-06 07:00:00 4.4 14 Sudeste 19 Sudeste 0 -- -- 87
2019-12-06 06:00:00 4.6 8 Sur 15 Sur 0 -- -- 87
2019-12-06 05:00:00 4.9 10 Sur 16 Sur 0 -- -- 87
2019-12-06 04:00:00 4.7 7 Este 14 Sudeste 0 -- -- 87
2019-12-06 03:00:00 4.9 10 Este 21 Este 0 -- -- 87
2019-12-06 02:00:00 5.6 12 Este 22 Este 0 -- -- 84
2019-12-06 01:00:00 5.7 12 Este 39 Sudeste 0 -- -- 85
2019-12-06 00:00:00 6 24 Este 43 Sudeste 0 -- -- 85
2019-12-05 23:00:00 5.9 19 Este 36 Este 0 -- -- 86
2019-12-05 22:00:00 5.6 18 Este 31 Nordeste 0 -- -- 89
2019-12-05 21:00:00 5 10 Nordeste 17 Nordeste 0 -- -- 91
2019-12-05 20:00:00 5.8 7 Nordeste 26 Este 0 -- -- 87
2019-12-05 19:00:00 6.1 12 Este 24 Nordeste 0 -- -- 86
2019-12-05 18:00:00 6.8 15 Nordeste 27 Este 0 -- -- 82
2019-12-05 17:00:00 8.2 18 Este 35 Nordeste 0 -- -- 78
2019-12-05 16:00:00 8.5 24 Este 34 Este 0 -- -- 74
2019-12-05 15:00:00 8.9 17 Este 34 Nordeste 0 -- -- 75
2019-12-05 14:00:00 8.7 22 Nordeste 39 Este 0 -- -- 75
2019-12-05 13:00:00 7.7 21 Este 35 Nordeste 0 -- -- 77
2019-12-05 12:00:00 6 21 Nordeste 31 Nordeste 0 -- -- 83
2019-12-05 11:00:00 4.9 16 Nordeste 23 Nordeste 0 -- -- 88
2019-12-05 10:00:00 3.4 9 Nordeste 14 Nordeste 0 -- -- 96
2019-12-05 09:00:00 3.5 9 Nordeste 15 Nordeste 0 -- -- 92
2019-12-05 08:00:00 3 8 Este 12 Este 0 -- -- 94
2019-12-05 07:00:00 2.4 4 Este 6 Este 0 -- -- 95
2019-12-05 06:00:00 2.4 3 Nordeste 7 Este 0 -- -- 94
2019-12-05 05:00:00 2.2 5 Nordeste 14 Este 0 -- -- 93
2019-12-05 04:00:00 1.9 8 Este 13 Este 0 -- -- 95
2019-12-05 03:00:00 1.8 4 Este 9 Nordeste 0 -- -- 95
2019-12-05 02:00:00 2.1 0 Calma 10 Este 0 -- -- 94
2019-12-05 01:00:00 1.5 5 Este 9 Este 0 -- -- 97
2019-12-05 00:00:00 1.7 3 Este 10 Norte 0 -- -- 95
2019-12-04 23:00:00 2.5 4 Norte 9 Norte 0 -- -- 95
2019-12-04 22:00:00 3 3 Nordeste 6 Nordeste 0 -- -- 96
2019-12-04 21:00:00 4.1 3 Nordeste 9 Nordeste 0 -- -- 95
2019-12-04 20:00:00 5 3 Este 6 Este 0 -- -- 93
2019-12-04 19:00:00 5.7 2 Este 5 Sudeste 0 -- -- 91
2019-12-04 18:00:00 5.6 4 Este 7 Este 0 -- -- 91
2019-12-04 17:00:00 5.8 0 Calma 8 Norte 0 -- -- 90
2019-12-04 16:00:00 6.3 4 Norte 12 Norte 0 -- -- 87
2019-12-04 15:00:00 6.5 7 Norte 18 Norte 0 -- -- 86
2019-12-04 14:00:00 6.7 11 Norte 34 Nordeste 0 -- -- 87
2019-12-04 13:00:00 6.7 17 Este 31 Este 0 -- -- 84
2019-12-04 12:00:00 6 18 Nordeste 31 Nordeste 0 -- -- 88
2019-12-04 11:00:00 6.1 15 Este 35 Sudeste 0 -- -- 89
2019-12-04 10:00:00 5.1 15 Este 40 Sudeste 0 -- -- 91
2019-12-04 09:00:00 4.6 19 Este 33 Sudeste 0 -- -- 93
2019-12-04 08:00:00 4.6 22 Sudeste 36 Este 0 -- -- 92
2019-12-04 07:00:00 4.3 19 Este 32 Este 0 -- -- 92
2019-12-04 06:00:00 4 10 Este 28 Sudeste 0 -- -- 90
2019-12-04 05:00:00 4.9 11 Este 32 Sudeste 0 -- -- 85
2019-12-04 04:00:00 4.7 14 Este 33 Este 0 -- -- 85
2019-12-04 03:00:00 3.8 2 Nordeste 18 Este 0 -- -- 83
2019-12-04 02:00:00 4.6 12 Este 25 Este 0 -- -- 78
2019-12-04 01:00:00 4.1 12 Este 18 Este 0 -- -- 75
2019-12-04 00:00:00 3.9 13 Sudeste 31 Sudeste 0 -- -- 77
2019-12-03 23:00:00 3 9 Este 19 Este 0 -- -- 79
2019-12-03 22:00:00 2.2 13 Sudeste 18 Sudeste 0 -- -- 82
2019-12-03 21:00:00 2.1 9 Sudeste 17 Sudeste 0 -- -- 81
2019-12-03 20:00:00 2.6 12 Sudeste 21 Sudeste 0 -- -- 79
2019-12-03 19:00:00 1.7 9 Sudeste 15 Sudeste 0 -- -- 81
2019-12-03 18:00:00 1.2 6 Este 25 Este 0 -- -- 87
2019-12-03 17:00:00 3.2 15 Este 29 Este 0 -- -- 79
2019-12-03 16:00:00 4 18 Nordeste 26 Este 0 -- -- 74
2019-12-03 15:00:00 4.5 13 Nordeste 23 Nordeste 0 -- -- 69
2019-12-03 14:00:00 4.2 14 Nordeste 21 Nordeste 0 -- -- 70
2019-12-03 13:00:00 3.6 12 Nordeste 24 Nordeste 0 -- -- 75
2019-12-03 12:00:00 2.4 14 Nordeste 21 Nordeste 0 -- -- 79
2019-12-03 11:00:00 1.6 12 Este 21 Este 0 -- -- 88
2019-12-03 10:00:00 0.2 12 Nordeste 20 Nordeste 0 -- -- 91
2019-12-03 09:00:00 -1.3 11 Este 18 Este 0 -- -- 92
2019-12-03 08:00:00 -1.5 12 Este 17 Este 0 -- -- 94
2019-12-03 07:00:00 -2.6 8 Este 11 Este 0 -- -- 100
2019-12-03 06:00:00 -2.7 10 Este 13 Este 0 -- -- 98
2019-12-03 05:00:00 -1.7 7 Nordeste 16 Este 0 -- -- 98
2019-12-03 04:00:00 -1.9 11 Este 16 Este 0 -- -- 99
2019-12-03 03:00:00 -2 6 Este 9 Este 0 -- -- 98
2019-12-03 02:00:00 -2.2 7 Nordeste 9 Nordeste 0 -- -- 99
2019-12-03 01:00:00 -1.9 5 Este 6 Nordeste 0 -- -- 99
2019-12-03 00:00:00 -1.6 3 Este 10 Nordeste 0 -- -- 98
2019-12-02 23:00:00 -0.9 5 Nordeste 8 Este 0 -- -- 98
2019-12-02 22:00:00 -0.3 6 Nordeste 12 Este 0 -- -- 98
2019-12-02 21:00:00 0.1 7 Este 16 Nordeste 0 -- -- 97
2019-12-02 20:00:00 1.3 10 Nordeste 23 Nordeste 0 -- -- 94
2019-12-02 19:00:00 3.5 16 Nordeste 27 Nordeste 0 -- -- 89
2019-12-02 18:00:00 4.3 17 Nordeste 24 Norte 0 -- -- 89
2019-12-02 17:00:00 5.9 12 Nordeste 28 Nordeste 0 -- -- 76
2019-12-02 16:00:00 6.4 17 Nordeste 27 Nordeste 0 -- -- 72
2019-12-02 15:00:00 6.7 16 Nordeste 32 Nordeste 0 -- -- 73
2019-12-02 14:00:00 6.3 15 Nordeste 35 Nordeste 0 -- -- 74
2019-12-02 13:00:00 6.1 18 Nordeste 35 Nordeste 0 -- -- 77
2019-12-02 12:00:00 5.3 20 Nordeste 36 Nordeste 0 -- -- 79
2019-12-02 11:00:00 4.3 18 Nordeste 35 Este 0 -- -- 88
2019-12-02 10:00:00 2.8 10 Nordeste 17 Nordeste 0.2 -- -- 97
2019-12-02 09:00:00 1.3 11 Nordeste 19 Este 0 -- -- 99
2019-12-02 08:00:00 0.8 12 Nordeste 21 Este 0 -- -- 98
2019-12-02 07:00:00 1.4 14 Este 22 Este 0 -- -- 98
2019-12-02 06:00:00 1.5 13 Este 22 Este 0 -- -- 99
2019-12-02 05:00:00 1.8 14 Este 23 Este 0 -- -- 100
2019-12-02 04:00:00 1.1 12 Nordeste 17 Este 0 -- -- 100
2019-12-02 03:00:00 1.4 8 Nordeste 19 Nordeste 0 -- -- 100
2019-12-02 02:00:00 2 13 Este 18 Este 0 -- -- 100
2019-12-02 01:00:00 2.1 13 Este 17 Este 0 -- -- 100
2019-12-02 00:00:00 2.8 10 Nordeste 19 Este 0 -- -- 100
2019-12-01 23:00:00 3.6 14 Nordeste 30 Este 0 -- -- 99
2019-12-01 22:00:00 3.4 13 Nordeste 22 Nordeste 0 -- -- 100
2019-12-01 21:00:00 3.6 10 Nordeste 19 Nordeste 0 -- -- 100
2019-12-01 20:00:00 4.1 8 Nordeste 13 Nordeste 0 -- -- 100
2019-12-01 19:00:00 3.9 6 Nordeste 12 Nordeste 0 -- -- 100
2019-12-01 18:00:00 4.2 5 Nordeste 11 Nordeste 0.4 -- -- 100
2019-12-01 17:00:00 4.4 5 Nordeste 15 Este 0.6 -- -- 97
2019-12-01 16:00:00 4.8 10 Este 16 Este 0.4 -- -- 94
2019-12-01 15:00:00 5.2 9 Nordeste 13 Nordeste 0.2 -- -- 93
2019-12-01 14:00:00 5.6 2 Este 10 Sudeste 0 -- -- 86
2019-12-01 13:00:00 5.4 6 Este 16 Sudeste 0.2 -- -- 89
2019-12-01 12:00:00 5 9 Sur 19 Sudeste 0.2 -- -- 86
2019-12-01 11:00:00 4.9 11 Sudeste 18 Sudeste 0 -- -- 87
2019-12-01 10:00:00 4.3 7 Sudeste 18 Sudeste 0 -- -- 89
2019-12-01 09:00:00 3.5 7 Sur 12 Sudeste 0 -- -- 94
2019-12-01 08:00:00 3.3 10 Sur 23 Sudoeste 0.2 -- -- 94
2019-12-01 07:00:00 3.6 15 Sudoeste 26 Sudoeste 0 -- -- 91
2019-12-01 06:00:00 3.4 13 Sur 26 Sudoeste 0 -- -- 92
2019-12-01 05:00:00 3.3 15 Sudoeste 22 Sudoeste 0 -- -- 94
2019-12-01 04:00:00 3.7 15 Sudoeste 24 Sudoeste 0 -- -- 97
2019-12-01 03:00:00 3.7 15 Sudoeste 32 Sudoeste 0 -- -- 99
2019-12-01 02:00:00 3.6 22 Sudoeste 30 Sudoeste 0 -- -- 100
2019-12-01 01:00:00 3.7 18 Sudoeste 31 Sudoeste 0 -- -- 100
2019-12-01 00:00:00 3.5 18 Sudoeste 35 Sudoeste 0 -- -- 99
2019-11-30 23:00:00 2.9 23 Sudoeste 33 Sudoeste 0 -- -- 98
2019-11-30 22:00:00 3.5 12 Sudoeste 36 Sudoeste 0 -- -- 94
2019-11-30 21:00:00 4.5 24 Sudoeste 51 Sudoeste 0 -- -- 93
2019-11-30 20:00:00 4.6 23 Sudoeste 44 Sudoeste 0.2 -- -- 96
2019-11-30 19:00:00 5.2 19 Sudoeste 28 Sudoeste 1.6 -- -- 100
2019-11-30 18:00:00 5.6 18 Oeste 41 Oeste 2 -- -- 100
2019-11-30 17:00:00 6.7 22 Oeste 48 Oeste 2.6 -- -- 100
2019-11-30 16:00:00 8.4 30 Oeste 52 Oeste 5.6 -- -- 98
2019-11-30 15:00:00 10 33 Sudoeste 54 Sudoeste 0.6 -- -- 99
2019-11-30 14:00:00 11.9 37 Sudoeste 65 Sudoeste 0 -- -- 86
2019-11-30 13:00:00 11.3 35 Sudoeste 48 Sudoeste 0.2 -- -- 88
2019-11-30 12:00:00 12 33 Sudoeste 49 Sudoeste 0 -- -- 82
2019-11-30 11:00:00 10.4 24 Sudoeste 44 Sudoeste 0 -- -- 90
2019-11-30 10:00:00 9.4 24 Sudoeste 41 Sudoeste 0 -- -- 95
2019-11-30 09:00:00 9.4 24 Sudoeste 36 Sudoeste 0 -- -- 97
2019-11-30 08:00:00 8.9 27 Sudoeste 42 Sudoeste 0 -- -- 100
2019-11-30 07:00:00 9 23 Sudoeste 37 Sudoeste 0 -- -- 100
2019-11-30 06:00:00 9.3 22 Sudoeste 35 Sudoeste 0 -- -- 100
2019-11-30 05:00:00 9.4 21 Sudoeste 37 Sudoeste 0 -- -- 100
2019-11-30 04:00:00 9.5 24 Sudoeste 35 Sudoeste 0.2 -- -- 100
2019-11-30 03:00:00 9.5 21 Sudoeste 30 Sudoeste 0.6 -- -- 100
2019-11-30 02:00:00 9.3 16 Sudoeste 24 Sudoeste 0.4 -- -- 100
2019-11-30 01:00:00 9.3 14 Sur 23 Sudoeste 0.6 -- -- 100
2019-11-30 00:00:00 9.4 13 Sudoeste 20 Sudoeste 0.6 -- -- 100
2019-11-29 23:00:00 9.2 9 Sur 14 Sudoeste 0 -- -- 100
2019-11-29 22:00:00 8.9 11 Sudoeste 18 Sudoeste 0 -- -- 100
2019-11-29 21:00:00 9.1 14 Sudoeste 23 Sudoeste 0 -- -- 100
2019-11-29 20:00:00 9.1 15 Sudoeste 26 Sudoeste 0 -- -- 100
2019-11-29 19:00:00 9 12 Sudoeste 19 Sudoeste 0 -- -- 100
2019-11-29 18:00:00 9.5 10 Sudoeste 15 Oeste 0 -- -- 98
2019-11-29 17:00:00 10.3 10 Sudoeste 20 Oeste 0 -- -- 98
2019-11-29 16:00:00 10.4 10 Oeste 22 Sudoeste 0 -- -- 99
2019-11-29 15:00:00 10.5 15 Oeste 22 Oeste 0 -- -- 100
2019-11-29 14:00:00 10.2 13 Oeste 26 Sudoeste 0 -- -- 100
2019-11-29 13:00:00 10.1 16 Oeste 26 Sudoeste 0 -- -- 100
2019-11-29 12:00:00 9.8 15 Oeste 23 Oeste 0 -- -- 100
2019-11-29 11:00:00 9.6 17 Oeste 29 Oeste 0.2 -- -- 100
2019-11-29 10:00:00 9.4 17 Oeste 28 Oeste 1 -- -- 100
2019-11-29 09:00:00 9.3 17 Oeste 29 Sudoeste 0.4 -- -- 100
2019-11-29 08:00:00 9.2 18 Sudoeste 31 Sudoeste 0.8 -- -- 100
2019-11-29 07:00:00 9.1 21 Sudoeste 38 Sudoeste 0.2 -- -- 100
2019-11-29 06:00:00 9.1 23 Oeste 37 Oeste 0 -- -- 100
2019-11-29 05:00:00 9 21 Oeste 35 Sudoeste 0.4 -- -- 100
2019-11-29 04:00:00 8.9 17 Oeste 26 Oeste 1.8 -- -- 100
2019-11-29 03:00:00 8.8 16 Oeste 39 Sudoeste 1.4 -- -- 100
2019-11-29 02:00:00 8.7 24 Sudoeste 42 Sudoeste 0.2 -- -- 100
2019-11-29 01:00:00 8.4 24 Sudoeste 45 Sudoeste 0.4 -- -- 100
2019-11-29 00:00:00 8.1 32 Sudoeste 56 Sudoeste 0 -- -- 99
2019-11-28 23:00:00 8.5 39 Sudoeste 55 Sudoeste 0 -- -- 95
2019-11-28 22:00:00 8.9 35 Sudoeste 56 Sudoeste 0 -- -- 89
2019-11-28 21:00:00 8.9 36 Sudoeste 54 Sudoeste 0 -- -- 87
2019-11-28 20:00:00 8.9 35 Sudoeste 53 Sudoeste 0 -- -- 88
2019-11-28 19:00:00 9.3 34 Sudoeste 58 Sudoeste 0 -- -- 87
2019-11-28 18:00:00 9.1 35 Sudoeste 55 Sudoeste 0 -- -- 86
2019-11-28 17:00:00 8.9 31 Sudoeste 50 Sudoeste 0 -- -- 83
2019-11-28 16:00:00 9.3 34 Sudoeste 60 Sudoeste 0 -- -- 81
2019-11-28 15:00:00 9.5 32 Sudoeste 47 Sudoeste 0 -- -- 84
2019-11-28 14:00:00 8.9 23 Sudoeste 44 Sudoeste 0.2 -- -- 95
2019-11-28 13:00:00 8.6 31 Sudoeste 46 Sudoeste 0 -- -- 92
2019-11-28 12:00:00 8.9 26 Sudoeste 41 Sudoeste 0 -- -- 90
2019-11-28 11:00:00 7.8 28 Sudoeste 41 Sudoeste 0 -- -- 94
2019-11-28 10:00:00 7.3 30 Sudoeste 48 Sudoeste 0 -- -- 98
2019-11-28 09:00:00 6.9 31 Sudoeste 45 Sudoeste 0 -- -- 100
2019-11-28 08:00:00 6.4 28 Sudoeste 44 Sudoeste 0 -- -- 100
2019-11-28 07:00:00 6.4 33 Sudoeste 46 Sudoeste 0.2 -- -- 100
2019-11-28 06:00:00 6.4 26 Sudoeste 42 Sudoeste 0.2 -- -- 100
2019-11-28 05:00:00 6.5 29 Sudoeste 46 Sudoeste 0 -- -- 99
2019-11-28 04:00:00 6.5 29 Sudoeste 55 Sudoeste 0 -- -- 99
2019-11-28 03:00:00 6.5 32 Sudoeste 50 Sudoeste 0 -- -- 99
2019-11-28 02:00:00 6.7 31 Sudoeste 60 Sudoeste 0 -- -- 97
2019-11-28 01:00:00 6.7 35 Sudoeste 56 Oeste 0 -- -- 97
2019-11-28 00:00:00 6.8 31 Sudoeste 56 Sudoeste 0 -- -- 97
2019-11-27 23:00:00 6.7 32 Sudoeste 57 Sudoeste 0 -- -- 98
2019-11-27 22:00:00 6.9 33 Sudoeste 48 Sudoeste 0 -- -- 95
2019-11-27 21:00:00 7 32 Sudoeste 52 Sudoeste 0 -- -- 92
2019-11-27 20:00:00 7.1 29 Sudoeste 46 Sudoeste 0 -- -- 91
2019-11-27 19:00:00 7.2 29 Sudoeste 46 Sudoeste 0 -- -- 89
2019-11-27 18:00:00 7.5 31 Sudoeste 48 Sudoeste 0 -- -- 87
2019-11-27 17:00:00 7.6 29 Sudoeste 52 Sudoeste 0 -- -- 87
2019-11-27 16:00:00 7.9 24 Sudoeste 45 Sudoeste 0 -- -- 85
2019-11-27 15:00:00 8.2 30 Sudoeste 44 Sudoeste 0 -- -- 83
2019-11-27 14:00:00 9.2 23 Sudoeste 43 Sudoeste 0 -- -- 80
2019-11-27 06:00:00 5.4 34 Sudoeste 52 Sudoeste 0 -- -- 95
2019-11-27 05:00:00 5.5 36 Sudoeste 61 Sudoeste 0 -- -- 94
2019-11-27 04:00:00 6.3 36 Sudoeste 56 Sudoeste 0 -- -- 96
2019-11-27 03:00:00 6.3 32 Sudoeste 61 Sudoeste 0 -- -- 96
2019-11-27 02:00:00 7.2 37 Sudoeste 64 Sudoeste 0 -- -- 96
2019-11-27 01:00:00 7.7 35 Oeste 61 Oeste 0 -- -- 98
2019-11-27 00:00:00 8.4 45 Sudoeste 70 Sudoeste 0.8 -- -- 98
2019-11-26 23:00:00 8.9 41 Sudoeste 82 Sudoeste 0 -- -- 91
2019-11-26 22:00:00 9.9 45 Sudoeste 70 Sudoeste 0 -- -- 86
2019-11-26 21:00:00 10 41 Sudoeste 62 Sudoeste 0 -- -- 94
2019-11-26 20:00:00 10.3 33 Sudoeste 71 Sudoeste 1 -- -- 94
2019-11-26 19:00:00 12.2 35 Sudoeste 58 Sudoeste 0.2 -- -- 78
2019-11-26 18:00:00 12.3 35 Sudoeste 53 Sudoeste 0 -- -- 79
2019-11-26 17:00:00 12.4 28 Sudoeste 55 Sudoeste 0 -- -- 82
2019-11-26 16:00:00 13.2 26 Sudoeste 46 Sudoeste 0 -- -- 79
2019-11-26 15:00:00 13.3 29 Sudoeste 43 Sudoeste 0.2 -- -- 85
2019-11-26 14:00:00 12.8 25 Sudoeste 46 Sudoeste 0 -- -- 86
2019-11-26 13:00:00 13 27 Sudoeste 44 Sudoeste 0 -- -- 86
2019-11-26 12:00:00 11 28 Sudoeste 41 Sudoeste 0 -- -- 97
2019-11-26 11:00:00 10.7 24 Sudoeste 40 Sudoeste 0.6 -- -- 97
2019-11-26 10:00:00 11 18 Sudoeste 30 Sudoeste 0.2 -- -- 95
2019-11-26 09:00:00 9.6 17 Sudoeste 33 Sudoeste 0 -- -- 97
2019-11-26 08:00:00 9.3 21 Sudoeste 35 Sudoeste 0 -- -- 96
2019-11-26 07:00:00 8.3 22 Sudoeste 34 Sudoeste 0 -- -- 96
2019-11-26 06:00:00 9.1 25 Sudoeste 39 Sudoeste 0 -- -- 89
2019-11-26 05:00:00 8.3 23 Sudoeste 35 Sudoeste 0 -- -- 94
2019-11-26 04:00:00 8 19 Sudoeste 27 Sudoeste 0 -- -- 96
2019-11-26 03:00:00 7.9 23 Sudoeste 34 Sudoeste 0 -- -- 96
2019-11-26 02:00:00 7.9 19 Sudoeste 36 Sudoeste 0 -- -- 97
2019-11-26 01:00:00 7.6 22 Sudoeste 33 Sudoeste 0 -- -- 98
2019-11-26 00:00:00 7.7 18 Sudoeste 35 Sudoeste 0 -- -- 99
2019-11-25 23:00:00 7.6 21 Sudoeste 37 Sudoeste 0 -- -- 98
2019-11-25 22:00:00 7.7 20 Sudoeste 33 Sudoeste 0 -- -- 98
2019-11-25 21:00:00 7.9 21 Sudoeste 38 Sudoeste 0 -- -- 94
2019-11-25 20:00:00 8.1 23 Sudoeste 36 Sudoeste 0 -- -- 93
2019-11-25 19:00:00 8.4 22 Sudoeste 33 Sudoeste 0 -- -- 93
2019-11-25 18:00:00 8.6 19 Sudoeste 29 Oeste 0 -- -- 92
2019-11-25 17:00:00 9.1 19 Oeste 37 Oeste 0 -- -- 87
2019-11-25 16:00:00 9.7 29 Oeste 49 Sudoeste 0 -- -- 81
2019-11-25 15:00:00 10.1 31 Sudoeste 50 Sudoeste 0 -- -- 88
2019-11-25 14:00:00 9.9 30 Oeste 44 Sudoeste 0 -- -- 94
2019-11-25 13:00:00 9.3 24 Sudoeste 41 Sudoeste 0.2 -- -- 100
2019-11-25 12:00:00 8.9 28 Sudoeste 42 Oeste 0 -- -- 100
2019-11-25 11:00:00 8.4 24 Sudoeste 47 Oeste 0 -- -- 100
2019-11-25 10:00:00 7.9 27 Sudoeste 46 Sudoeste 0 -- -- 100
2019-11-25 09:00:00 7.9 29 Sudoeste 44 Sudoeste 0 -- -- 100
2019-11-25 08:00:00 7.9 28 Sudoeste 51 Oeste 0 -- -- 100
2019-11-25 07:00:00 7.9 32 Sudoeste 53 Sudoeste 0 -- -- 100
2019-11-25 06:00:00 7.8 31 Sudoeste 52 Sudoeste 0 -- -- 100
2019-11-25 05:00:00 8 31 Oeste 55 Oeste 0 -- -- 100
2019-11-25 04:00:00 8.1 37 Oeste 63 Oeste 0.2 -- -- 100
2019-11-25 03:00:00 8.4 34 Sudoeste 52 Sudoeste 0.8 -- -- 100
2019-11-25 02:00:00 8 34 Sudoeste 53 Sudoeste 0.2 -- -- 100
2019-11-25 01:00:00 7.8 38 Sudoeste 54 Sudoeste 0.8 -- -- 100
2019-11-25 00:00:00 7.3 30 Sudoeste 50 Sudoeste 0.2 -- -- 98
2019-11-24 23:00:00 6.3 28 Sudoeste 45 Sudoeste 0 -- -- 99
2019-11-24 22:00:00 5.8 31 Sudoeste 45 Sudoeste 0 -- -- 98
2019-11-24 21:00:00 5.2 29 Sudoeste 45 Sudoeste 0 -- -- 97
2019-11-24 20:00:00 5.1 20 Sudoeste 40 Sudoeste 0 -- -- 98
2019-11-24 19:00:00 4.7 21 Sudoeste 33 Sudoeste 0 -- -- 95
2019-11-24 18:00:00 5 22 Sudoeste 34 Sudoeste 0 -- -- 90
2019-11-24 17:00:00 5.2 22 Sudoeste 35 Sudoeste 0 -- -- 88
2019-11-24 16:00:00 5.4 20 Oeste 33 Oeste 0 -- -- 86
2019-11-24 15:00:00 5.5 22 Sudoeste 32 Sudoeste 0 -- -- 85
2019-11-24 14:00:00 5 19 Sudoeste 35 Sudoeste 0 -- -- 88
2019-11-24 13:00:00 3.9 20 Sudoeste 33 Sudoeste 0 -- -- 92
2019-11-24 12:00:00 3.5 17 Sudoeste 31 Oeste 0 -- -- 100
2019-11-24 11:00:00 2.2 22 Sudoeste 33 Sudoeste 0 -- -- 100
2019-11-24 10:00:00 1.5 21 Sudoeste 31 Sudoeste 0 -- -- 100
2019-11-24 09:00:00 1.5 20 Sudoeste 34 Sudoeste 0 -- -- 100
2019-11-24 08:00:00 1.5 19 Sudoeste 36 Oeste 0 -- -- 100
2019-11-24 07:00:00 1.7 22 Oeste 36 Sudoeste 0 -- -- 100
2019-11-24 06:00:00 1.9 25 Oeste 40 Oeste 0 -- -- 100
2019-11-24 05:00:00 2 21 Oeste 41 Sudoeste 0 -- -- 100
2019-11-24 04:00:00 2.1 23 Oeste 37 Oeste 0 -- -- 100
2019-11-24 03:00:00 2.1 23 Oeste 41 Oeste 0 -- -- 100
2019-11-24 02:00:00 2.1 24 Oeste 40 Oeste 0 -- -- 100
2019-11-24 01:00:00 2.2 22 Sudoeste 39 Sudoeste 0 -- -- 99
2019-11-24 00:00:00 2.5 27 Sudoeste 46 Sudoeste 0 -- -- 97
2019-11-23 23:00:00 3.2 24 Oeste 40 Oeste 0 -- -- 94
2019-11-23 22:00:00 3.8 25 Sudoeste 42 Oeste 0 -- -- 92
2019-11-23 21:00:00 4.2 24 Oeste 34 Oeste 0 -- -- 91
2019-11-23 20:00:00 4.7 17 Oeste 29 Oeste 0 -- -- 83
2019-11-23 19:00:00 4.7 21 Oeste 31 Oeste 0 -- -- 82
2019-11-23 18:00:00 4.9 22 Oeste 39 Oeste 0 -- -- 80
2019-11-23 17:00:00 6.6 20 Oeste 47 Oeste 0 -- -- 72
2019-11-23 16:00:00 6.1 26 Oeste 42 Oeste 0 -- -- 76
2019-11-23 15:00:00 5.7 26 Oeste 44 Oeste 0 -- -- 79
2019-11-23 14:00:00 5.9 31 Oeste 54 Oeste 0 -- -- 78
2019-11-23 13:00:00 5.2 30 Oeste 50 Oeste 0 -- -- 86
2019-11-23 12:00:00 4.5 31 Oeste 51 Oeste 0 -- -- 90
2019-11-23 11:00:00 3.2 33 Oeste 52 Oeste 0 -- -- 94
2019-11-23 10:00:00 1.8 31 Oeste 56 Sudoeste 0 -- -- 99
2019-11-23 09:00:00 1.4 36 Oeste 60 Oeste 0 -- -- 100
2019-11-23 08:00:00 1.9 42 Oeste 62 Oeste 0 -- -- 100
2019-11-23 07:00:00 2.3 32 Sudoeste 63 Oeste 0 -- -- 100
2019-11-23 06:00:00 2.6 42 Oeste 66 Oeste 0 -- -- 100
2019-11-23 05:00:00 2.7 41 Oeste 62 Sudoeste 0.8 -- -- 100
2019-11-23 04:00:00 2.1 38 Oeste 66 Sudoeste 2.2 -- -- 100
2019-11-23 03:00:00 3.4 42 Oeste 67 Sudoeste 0 -- -- 96
2019-11-23 02:00:00 3.7 44 Sudoeste 62 Sudoeste 0 -- -- 95
2019-11-23 01:00:00 4.6 35 Sudoeste 64 Sudoeste 0 -- -- 97
2019-11-23 00:00:00 5.1 40 Sudoeste 60 Sudoeste 0 -- -- 97
2019-11-22 23:00:00 5.5 33 Sudoeste 60 Sudoeste 0.4 -- -- 97
2019-11-22 22:00:00 5.5 34 Sudoeste 58 Sudoeste 0 -- -- 96
2019-11-22 21:00:00 5.3 40 Sudoeste 59 Sudoeste 0 -- -- 98
2019-11-22 20:00:00 5.7 34 Sudoeste 60 Sudoeste 0.4 -- -- 99
2019-11-22 19:00:00 6.2 36 Sudoeste 60 Oeste 0.2 -- -- 98
2019-11-22 18:00:00 7.6 39 Oeste 62 Oeste 1.2 -- -- 97
2019-11-22 17:00:00 7.7 44 Oeste 70 Oeste 1.4 -- -- 92
2019-11-22 16:00:00 10.6 42 Sudoeste 65 Sudoeste 0.2 -- -- 81
2019-11-22 15:00:00 8.4 28 Sudoeste 48 Sur 0.4 -- -- 94
2019-11-22 14:00:00 8.5 31 Sur 75 Sudoeste 0.6 -- -- 91
2019-11-22 13:00:00 8.4 31 Sur 56 Sur 0 -- -- 85
2019-11-22 12:00:00 7.7 28 Sur 50 Sur 0 -- -- 87
2019-11-22 11:00:00 6.9 30 Sur 48 Sur 0 -- -- 88
2019-11-22 10:00:00 5.9 31 Sur 48 Sur 0.6 -- -- 92
2019-11-22 09:00:00 5.4 24 Sur 37 Sur 1.4 -- -- 95
2019-11-22 08:00:00 4.9 20 Sur 34 Sur 0.6 -- -- 93
2019-11-22 07:00:00 4.6 19 Sur 36 Sur 0 -- -- 93
2019-11-22 06:00:00 4.7 16 Sur 30 Sudoeste 0.2 -- -- 95
2019-11-22 05:00:00 4.7 21 Sudoeste 30 Sur 0.4 -- -- 95
2019-11-22 04:00:00 4.8 23 Sudoeste 32 Sudoeste 0 -- -- 90
2019-11-22 03:00:00 4.6 15 Sur 22 Sur 0 -- -- 85
2019-11-22 02:00:00 4.3 14 Sur 19 Sur 0 -- -- 88
2019-11-22 01:00:00 3.9 12 Sur 23 Sur 0 -- -- 91
2019-11-22 00:00:00 4 14 Sur 24 Sur 0 -- -- 93
2019-11-21 23:00:00 3.8 11 Sur 22 Sur 0 -- -- 93
2019-11-21 22:00:00 4.1 14 Sur 19 Sur 0 -- -- 96
2019-11-21 21:00:00 3.6 12 Sudoeste 18 Sudoeste 0 -- -- 97
2019-11-21 20:00:00 3.9 12 Sudoeste 16 Sudoeste 0 -- -- 95
2019-11-21 19:00:00 3.9 10 Sudoeste 18 Sudoeste 0 -- -- 96
2019-11-21 18:00:00 4.3 9 Sudoeste 21 Oeste 0 -- -- 95
2019-11-21 17:00:00 5.3 12 Oeste 28 Sudoeste 0 -- -- 89
2019-11-21 16:00:00 5.4 19 Sudoeste 38 Oeste 0 -- -- 89
2019-11-21 15:00:00 5.8 20 Sudoeste 39 Oeste 0 -- -- 93
2019-11-21 14:00:00 5 21 Sudoeste 37 Sudoeste 1.2 -- -- 99
2019-11-21 13:00:00 4.8 17 Sudoeste 34 Sudoeste 0.4 -- -- 99
2019-11-21 12:00:00 4.6 21 Sudoeste 37 Sudoeste 0.6 -- -- 100
2019-11-21 11:00:00 3.6 19 Sudoeste 31 Sudoeste 0.4 -- -- 100
2019-11-21 10:00:00 2.9 12 Sudoeste 27 Sudoeste 1.4 -- -- 100
2019-11-21 09:00:00 2.9 14 Sudoeste 26 Sudoeste 0.6 -- -- 99
2019-11-21 08:00:00 3.1 17 Sudoeste 30 Sudoeste 0 -- -- 96
2019-11-21 07:00:00 3.3 17 Sudoeste 31 Sudoeste 0 -- -- 96
2019-11-21 06:00:00 3 17 Sudoeste 31 Sudoeste 0 -- -- 97
2019-11-21 05:00:00 2.8 17 Sudoeste 39 Sudoeste 0.2 -- -- 98
2019-11-21 04:00:00 3 21 Sudoeste 34 Sudoeste 0 -- -- 94
2019-11-21 03:00:00 2.9 21 Sudoeste 33 Sudoeste 0 -- -- 97
2019-11-21 02:00:00 3.1 17 Sudoeste 30 Sudoeste 0 -- -- 98
2019-11-21 01:00:00 3.3 16 Sudoeste 26 Sudoeste 0 -- -- 98
2019-11-21 00:00:00 3.2 15 Sudoeste 24 Sudoeste 0.2 -- -- 100
2019-11-20 23:00:00 3.2 15 Sudoeste 23 Sudoeste 0 -- -- 100
2019-11-20 22:00:00 3.3 17 Sudoeste 27 Sudoeste 0 -- -- 98
2019-11-20 21:00:00 3.6 15 Sudoeste 23 Sudoeste 0 -- -- 97
2019-11-20 20:00:00 3.4 16 Sudoeste 24 Sudoeste 0 -- -- 98
2019-11-20 19:00:00 3 16 Sudoeste 31 Sudoeste 0.6 -- -- 98
2019-11-20 18:00:00 3 19 Sudoeste 29 Sudoeste 0.8 -- -- 97
2019-11-20 17:00:00 3.6 15 Sudoeste 26 Sudoeste 0.4 -- -- 96
2019-11-20 16:00:00 3.9 14 Sudoeste 29 Sudoeste 0.4 -- -- 94
2019-11-20 15:00:00 5.5 13 Sudoeste 22 Sudoeste 0 -- -- 83
2019-11-20 14:00:00 5.1 9 Sudoeste 21 Sudoeste 0 -- -- 86
2019-11-20 13:00:00 4.8 11 Sudoeste 24 Sudoeste 0 -- -- 90
2019-11-20 12:00:00 4.8 16 Oeste 24 Sudoeste 0 -- -- 75
2019-11-20 11:00:00 5.9 5 Sur 15 Sur 0 -- -- 65
2019-11-20 10:00:00 5.2 6 Sur 14 Sudeste 0 -- -- 67
2019-11-20 09:00:00 3.2 10 Sudeste 14 Sur 0 -- -- 72
2019-11-20 08:00:00 2.9 9 Sur 13 Sur 0 -- -- 74
2019-11-20 07:00:00 2.7 8 Sur 11 Sur 0 -- -- 76
2019-11-20 06:00:00 2.6 9 Sur 13 Sur 0 -- -- 74
2019-11-20 05:00:00 2.7 10 Sur 15 Sur 0 -- -- 74
2019-11-20 04:00:00 3.7 9 Sur 15 Sur 0 -- -- 74
2019-11-20 03:00:00 3.3 8 Sur 13 Sur 0 -- -- 78
2019-11-20 02:00:00 2.7 12 Sudoeste 17 Sudoeste 0 -- -- 82
2019-11-20 01:00:00 2.7 11 Sur 15 Sur 0 -- -- 85
2019-11-20 00:00:00 2.7 8 Sur 17 Sur 0 -- -- 86
2019-11-19 23:00:00 2.5 9 Sur 12 Sur 0 -- -- 87
2019-11-19 22:00:00 2.5 10 Sur 13 Sur 0 -- -- 87
2019-11-19 21:00:00 2.7 10 Sudoeste 15 Sur 0 -- -- 86
2019-11-19 20:00:00 2.5 9 Sur 10 Sur 0 -- -- 87
2019-11-19 19:00:00 2.3 6 Sudoeste 8 Sur 0 -- -- 89
2019-11-19 18:00:00 3.1 3 Sudoeste 7 Oeste 0 -- -- 88
2019-11-19 17:00:00 4.4 8 Oeste 17 Oeste 0 -- -- 83
2019-11-19 16:00:00 5 12 Oeste 21 Noroeste 0 -- -- 78
2019-11-19 15:00:00 5.8 12 Oeste 25 Oeste 0 -- -- 77
2019-11-19 14:00:00 6 14 Oeste 23 Oeste 0 -- -- 73
2019-11-19 13:00:00 6.2 11 Sudoeste 21 Oeste 0 -- -- 73
2019-11-19 12:00:00 5.1 12 Sudoeste 19 Sudoeste 0 -- -- 81
2019-11-19 11:00:00 4.3 13 Sudoeste 22 Sudoeste 0 -- -- 88
2019-11-19 10:00:00 3.2 13 Sudoeste 17 Sudoeste 0 -- -- 91
2019-11-19 09:00:00 1.3 12 Sudoeste 19 Sudoeste 0 -- -- 93
2019-11-19 08:00:00 0.7 11 Sur 15 Sudoeste 0 -- -- 94
2019-11-19 07:00:00 0.5 8 Sudoeste 11 Sudoeste 0 -- -- 95
2019-11-19 06:00:00 0.5 6 Sur 8 Sur 0 -- -- 91
2019-11-19 05:00:00 0.6 3 Sur 4 Sur 0 -- -- 91
2019-11-19 04:00:00 -0.4 5 Sudeste 8 Sudeste 0 -- -- 97
2019-11-19 03:00:00 -0.4 7 Sudeste 8 Sudeste 0 -- -- 97
2019-11-19 02:00:00 -0.2 6 Sudeste 10 Este 0 -- -- 96
2019-11-19 01:00:00 0.7 5 Nordeste 9 Nordeste 0 -- -- 96
2019-11-19 00:00:00 1.4 2 Sudoeste 5 Sur 0 -- -- 96
2019-11-18 23:00:00 1.4 0 Calma 3 Oeste 0 -- -- 97
2019-11-18 22:00:00 1.6 0 Calma 6 Noroeste 0 -- -- 97
2019-11-18 21:00:00 2 6 Noroeste 11 Noroeste 0 -- -- 97
2019-11-18 20:00:00 2 3 Oeste 7 Noroeste 0 -- -- 98
2019-11-18 19:00:00 2.1 5 Noroeste 15 Noroeste 0 -- -- 97
2019-11-18 18:00:00 2.4 11 Noroeste 18 Noroeste 0 -- -- 92
2019-11-18 17:00:00 3.3 8 Norte 21 Noroeste 0 -- -- 91
2019-11-18 16:00:00 3.8 11 Norte 24 Noroeste 0 -- -- 96
2019-11-18 15:00:00 3.1 14 Noroeste 20 Norte 0 -- -- 94
2019-11-18 14:00:00 3 8 Norte 19 Noroeste 0 -- -- 96
2019-11-18 13:00:00 2.8 15 Norte 27 Norte 0 -- -- 99
2019-11-18 12:00:00 1.8 11 Noroeste 22 Noroeste 0 -- -- 100
2019-11-18 11:00:00 1.3 10 Noroeste 17 Noroeste 0.2 -- -- 100
2019-11-18 10:00:00 1 8 Noroeste 15 Noroeste 0 -- -- 100
2019-11-18 09:00:00 0.7 6 Norte 13 Norte 0 -- -- 100
2019-11-18 08:00:00 0.6 10 Norte 18 Norte 0 -- -- 100
2019-11-18 07:00:00 0.5 6 Noroeste 11 Noroeste 0 -- -- 100
2019-11-18 06:00:00 0.6 2 Norte 12 Norte 0 -- -- 100
2019-11-18 05:00:00 0.9 7 Norte 18 Norte 0 -- -- 100
2019-11-18 04:00:00 0.8 4 Oeste 12 Oeste 0 -- -- 100
2019-11-18 03:00:00 0.7 3 Oeste 14 Oeste 0 -- -- 100
2019-11-18 02:00:00 0.8 10 Oeste 17 Sudoeste 0 -- -- 100
2019-11-18 01:00:00 0.9 10 Oeste 15 Oeste 0 -- -- 100
2019-11-18 00:00:00 0.4 8 Sudoeste 23 Oeste 0 -- -- 100
2019-11-17 23:00:00 0.7 14 Oeste 26 Oeste 0 -- -- 100
2019-11-17 22:00:00 1.7 15 Oeste 23 Oeste 0 -- -- 100
2019-11-17 21:00:00 2.7 13 Oeste 23 Oeste 0 -- -- 100
2019-11-17 20:00:00 3.9 13 Oeste 32 Oeste 0 -- -- 100
2019-11-17 19:00:00 5.2 15 Oeste 31 Sudoeste 0 -- -- 100
2019-11-17 18:00:00 5.5 22 Oeste 37 Sudoeste 0 -- -- 100
2019-11-17 17:00:00 5.5 22 Oeste 44 Oeste 0.2 -- -- 100
2019-11-17 16:00:00 5.7 30 Oeste 50 Oeste 1.2 -- -- 100
2019-11-17 15:00:00 5.5 23 Oeste 44 Oeste 0.8 -- -- 100
2019-11-17 14:00:00 5.1 29 Oeste 47 Sudoeste 0.4 -- -- 100
2019-11-17 13:00:00 4.6 26 Sudoeste 49 Sudoeste 2.6 -- -- 100
2019-11-17 12:00:00 3.8 26 Sudoeste 43 Sudoeste 2.4 -- -- 100
2019-11-17 11:00:00 3.5 26 Sudoeste 42 Sudoeste 0.2 -- -- 100
2019-11-17 10:00:00 2.4 27 Sudoeste 40 Sudoeste 0.2 -- -- 100
2019-11-17 09:00:00 1.7 20 Sudoeste 37 Sudoeste 0 -- -- 100
2019-11-17 08:00:00 1.3 26 Sudoeste 39 Sudoeste 0 -- -- 100
2019-11-17 07:00:00 1 24 Sudoeste 36 Sudoeste 0 -- -- 100
2019-11-17 06:00:00 0.9 22 Sudoeste 37 Sudoeste 0 -- -- 100
2019-11-17 05:00:00 0.7 25 Sudoeste 40 Sudoeste 0 -- -- 99
2019-11-17 04:00:00 0.7 22 Sudoeste 37 Sudoeste 0 -- -- 100
2019-11-17 03:00:00 0.5 22 Sudoeste 36 Oeste 0 -- -- 99
2019-11-17 02:00:00 0.2 23 Sudoeste 36 Sudoeste 0 -- -- 99
2019-11-17 01:00:00 -0.3 24 Sudoeste 35 Sudoeste 0 -- -- 98
2019-11-17 00:00:00 -0.3 17 Sudoeste 27 Sudoeste 0 -- -- 97
2019-11-16 23:00:00 0.1 18 Sudoeste 29 Sudoeste 0 -- -- 96
2019-11-16 22:00:00 0.8 17 Sudoeste 32 Sudoeste 0 -- -- 94
2019-11-16 21:00:00 1.6 19 Sudoeste 31 Sudoeste 0 -- -- 94
2019-11-16 20:00:00 1.9 14 Sudoeste 27 Oeste 0 -- -- 93
2019-11-16 19:00:00 2.8 21 Oeste 33 Oeste 0 -- -- 90
2019-11-16 18:00:00 2.9 18 Sudoeste 31 Sudoeste 0 -- -- 85
2019-11-16 17:00:00 3.4 19 Oeste 35 Sudoeste 0 -- -- 82
2019-11-16 16:00:00 3.9 21 Oeste 41 Oeste 0 -- -- 80
2019-11-16 15:00:00 3.7 27 Oeste 40 Sudoeste 0.2 -- -- 79
2019-11-16 14:00:00 3.5 21 Oeste 35 Sudoeste 0 -- -- 79
2019-11-16 13:00:00 2.6 24 Sudoeste 33 Sudoeste 0 -- -- 88
2019-11-16 12:00:00 1.4 18 Sudoeste 29 Sudoeste 0 -- -- 100
2019-11-16 11:00:00 -0.5 18 Sudoeste 26 Sudoeste 0 -- -- 100
2019-11-16 10:00:00 -1.1 14 Sudoeste 29 Sudoeste 0 -- -- 100
2019-11-16 09:00:00 -1.5 15 Sudoeste 25 Sudoeste 0 -- -- 100
2019-11-16 08:00:00 -1.9 10 Sudoeste 21 Sudoeste 0 -- -- 100
2019-11-16 07:00:00 -1.7 13 Sudoeste 19 Oeste 0 -- -- 100
2019-11-16 06:00:00 -1.1 12 Sudoeste 15 Sudoeste 0 -- -- 100
2019-11-16 05:00:00 -1 9 Oeste 14 Oeste 0 -- -- 100
2019-11-16 04:00:00 -1 5 Oeste 13 Oeste 0 -- -- 100
2019-11-16 03:00:00 -0.5 7 Oeste 17 Oeste 0 -- -- 100
2019-11-16 02:00:00 -0.3 7 Oeste 11 Noroeste 0 -- -- 99
2019-11-16 01:00:00 0.1 7 Noroeste 15 Oeste 0 -- -- 99
2019-11-16 00:00:00 0.4 9 Oeste 16 Noroeste 0 -- -- 98
2019-11-15 23:00:00 0.5 8 Oeste 18 Oeste 0 -- -- 97
2019-11-15 22:00:00 0.7 11 Oeste 23 Noroeste 0 -- -- 97
2019-11-15 21:00:00 1.2 15 Oeste 24 Oeste 0 -- -- 92
2019-11-15 20:00:00 1.8 14 Oeste 30 Oeste 0 -- -- 88
2019-11-15 19:00:00 2.1 15 Oeste 30 Oeste 0 -- -- 86
2019-11-15 18:00:00 2.6 18 Oeste 33 Oeste 0 -- -- 82
2019-11-15 17:00:00 2.8 15 Oeste 35 Oeste 0 -- -- 85
2019-11-15 16:00:00 2.7 23 Oeste 39 Sudoeste 0 -- -- 84
2019-11-15 15:00:00 2.6 23 Oeste 41 Oeste 0 -- -- 87
2019-11-15 14:00:00 2.7 23 Oeste 42 Oeste 0.8 -- -- 97
2019-11-15 13:00:00 2.2 25 Oeste 42 Oeste 1.6 -- -- 100
2019-11-15 12:00:00 0.9 17 Oeste 28 Oeste 0.6 -- -- 100
2019-11-15 11:00:00 0.1 0 Calma -- -- 0 -- -- 100
2019-11-15 10:00:00 -0.3 0 Calma -- -- 0 -- -- 100
2019-11-15 09:00:00 -0.4 2 Oeste 27 Oeste 0 -- -- 100
2019-11-15 08:00:00 -0.3 14 Oeste 33 Oeste 0 -- -- 100
2019-11-15 07:00:00 -0.3 18 Oeste 32 Oeste 0 -- -- 100
2019-11-15 06:00:00 -0.2 17 Oeste 30 Oeste 0 -- -- 100
2019-11-15 05:00:00 0 16 Oeste 32 Oeste 0 -- -- 100
2019-11-15 04:00:00 0 23 Oeste 35 Oeste 0 -- -- 100
2019-11-15 03:00:00 0 18 Oeste 31 Oeste 0 -- -- 100
2019-11-15 02:00:00 -0.1 19 Oeste 30 Oeste 0 -- -- 100
2019-11-15 01:00:00 -0.1 19 Oeste 38 Oeste 0.2 -- -- 100
2019-11-15 00:00:00 -0.1 23 Oeste 40 Noroeste 0 -- -- 100
2019-11-14 23:00:00 0.2 19 Oeste 33 Oeste 0.2 -- -- 100
2019-11-14 22:00:00 0.2 18 Oeste 31 Oeste 0 -- -- 100
2019-11-14 21:00:00 0.3 20 Oeste 38 Oeste 0.4 -- -- 100
2019-11-14 20:00:00 0.5 20 Oeste 44 Oeste 0.8 -- -- 100
2019-11-14 19:00:00 0.4 23 Oeste 53 Oeste 0.2 -- -- 100
2019-11-14 18:00:00 0.5 29 Oeste 46 Oeste 0 -- -- 100
2019-11-14 17:00:00 0.2 29 Sudoeste 52 Sudoeste 0 -- -- 100
2019-11-14 16:00:00 1.4 29 Sudoeste 49 Sudoeste 0.6 -- -- 97
2019-11-14 15:00:00 1 33 Oeste 61 Sudoeste 0 -- -- 93
2019-11-14 14:00:00 3.1 34 Oeste 55 Oeste 0 -- -- 80
2019-11-14 13:00:00 2.1 31 Sudoeste 46 Sudoeste 0 -- -- 90
2019-11-14 12:00:00 1.7 26 Sudoeste 46 Sudoeste 0.2 -- -- 94
2019-11-14 11:00:00 1.5 23 Oeste 36 Oeste 0 -- -- 93
2019-11-14 10:00:00 1.2 21 Sudoeste 40 Oeste 0 -- -- 99
2019-11-14 09:00:00 1 23 Oeste 39 Sudoeste 0 -- -- 98
2019-11-14 08:00:00 1.1 21 Oeste 37 Oeste 0 -- -- 97
2019-11-14 07:00:00 1.3 15 Oeste 33 Oeste 0.6 -- -- 100
2019-11-14 06:00:00 0.9 21 Oeste 60 Oeste 3 -- -- 99
2019-11-14 05:00:00 4 32 Sudoeste 58 Sudoeste 1.6 -- -- 99
2019-11-14 04:00:00 4.1 35 Sudoeste 67 Sudoeste 0 -- -- 96
2019-11-14 03:00:00 4.7 41 Sudoeste 63 Sudoeste 0 -- -- 92
2019-11-14 02:00:00 4.9 36 Sudoeste 59 Sudoeste 0 -- -- 90
2019-11-14 01:00:00 5.3 38 Sudoeste 60 Sudoeste 0 -- -- 93
2019-11-14 00:00:00 5.6 39 Oeste 57 Sudoeste 0 -- -- 92
2019-11-13 23:00:00 6.4 32 Oeste 56 Sudoeste 0 -- -- 95
2019-11-13 22:00:00 7 34 Sudoeste 54 Sudoeste 0 -- -- 92
2019-11-13 21:00:00 7.2 32 Sudoeste 49 Sudoeste 0 -- -- 92
2019-11-13 20:00:00 7.4 26 Sudoeste 39 Sudoeste 0 -- -- 87
2019-11-13 19:00:00 7.2 23 Sudoeste 34 Sudoeste 0 -- -- 85
2019-11-13 18:00:00 7.9 17 Oeste 27 Sudoeste 0 -- -- 83
2019-11-13 17:00:00 8.5 21 Oeste 35 Sudoeste 0 -- -- 80
2019-11-13 16:00:00 8.8 15 Oeste 30 Oeste 0 -- -- 83
2019-11-13 15:00:00 8.4 15 Oeste 25 Oeste 0 -- -- 81
2019-11-13 14:00:00 7.7 10 Noroeste 25 Noroeste 0 -- -- 87
2019-11-13 13:00:00 7.8 11 Noroeste 17 Noroeste 0 -- -- 93
2019-11-13 12:00:00 6.6 6 Noroeste 16 Norte 0 -- -- 100
2019-11-13 11:00:00 5.5 13 Norte 25 Norte 0 -- -- 100
2019-11-13 10:00:00 4.8 13 Norte 23 Norte 0 -- -- 100
2019-11-13 09:00:00 4.7 9 Norte 26 Norte 0.2 -- -- 100
2019-11-13 08:00:00 5.4 15 Norte 47 Noroeste 0.6 -- -- 100
2019-11-13 07:00:00 8.5 23 Noroeste 43 Noroeste 0 -- -- 100
2019-11-13 06:00:00 8.6 26 Oeste 49 Oeste 0 -- -- 100
2019-11-13 05:00:00 8.5 28 Oeste 50 Oeste 1 -- -- 100
2019-11-13 04:00:00 8.1 31 Oeste 55 Oeste 1 -- -- 100
2019-11-13 03:00:00 7.6 35 Sudoeste 63 Sudoeste 2.2 -- -- 100
2019-11-13 02:00:00 7.5 36 Sudoeste 53 Sudoeste 3 -- -- 100
2019-11-13 01:00:00 7.1 32 Sudoeste 52 Sudoeste 2.2 -- -- 100
2019-11-13 00:00:00 6.6 32 Sudoeste 55 Sudoeste 0.2 -- -- 100
2019-11-12 23:00:00 6.1 30 Sudoeste 49 Sudoeste 0.6 -- -- 100
2019-11-12 22:00:00 5.4 31 Sudoeste 47 Sudoeste 0.6 -- -- 100
2019-11-12 21:00:00 5 31 Sudoeste 46 Sudoeste 1.2 -- -- 100
2019-11-12 20:00:00 4.8 28 Sudoeste 45 Sudoeste 1.6 -- -- 100
2019-11-12 19:00:00 4.5 23 Sudoeste 38 Sudoeste 1 -- -- 96
2019-11-12 18:00:00 4.8 17 Sudoeste 30 Sudoeste 0.2 -- -- 90
2019-11-12 17:00:00 5.6 20 Sudoeste 35 Sudoeste 0 -- -- 84
2019-11-12 16:00:00 5.7 23 Sudoeste 38 Sudoeste 0 -- -- 81
2019-11-12 15:00:00 5.9 25 Oeste 39 Oeste 0 -- -- 80
2019-11-12 14:00:00 5.4 23 Oeste 34 Oeste 0 -- -- 84
2019-11-12 13:00:00 4.4 19 Sudoeste 29 Oeste 0 -- -- 93
2019-11-12 12:00:00 3.6 17 Oeste 26 Sudoeste 0 -- -- 93
2019-11-12 11:00:00 3.3 16 Oeste 23 Oeste 0 -- -- 98
2019-11-12 10:00:00 2.3 13 Sudoeste 24 Sudoeste 0 -- -- 100
2019-11-12 09:00:00 1.2 14 Sudoeste 22 Sudoeste 0 -- -- 100
2019-11-12 08:00:00 1 13 Sudoeste 19 Sudoeste 0 -- -- 100
2019-11-12 07:00:00 0.7 10 Sudoeste 16 Sudoeste 0 -- -- 100
2019-11-12 06:00:00 0.9 5 Sudoeste 8 Sudoeste 0 -- -- 99
2019-11-12 05:00:00 1.5 3 Sudoeste 5 Sudoeste 0 -- -- 97
2019-11-12 04:00:00 1.1 3 Este 8 Este 0 -- -- 98
2019-11-12 03:00:00 1.3 6 Este 9 Este 0 -- -- 99
2019-11-12 02:00:00 1.7 2 Este 7 Este 0 -- -- 100
2019-11-12 01:00:00 1.6 2 Este 5 Sudeste 0 -- -- 100
2019-11-12 00:00:00 1.5 0 Calma 21 Nordeste 0 -- -- 100
2019-11-11 23:00:00 1.9 9 Nordeste 17 Nordeste 0 -- -- 100
2019-11-11 22:00:00 2.3 9 Nordeste 23 Este 0 -- -- 100
2019-11-11 21:00:00 2.1 6 Nordeste 14 Nordeste 0 -- -- 100
2019-11-11 20:00:00 2.7 8 Nordeste 16 Nordeste 0 -- -- 100
2019-11-11 19:00:00 3.2 11 Nordeste 14 Este 0 -- -- 100
2019-11-11 18:00:00 4.3 5 Nordeste 19 Nordeste 0 -- -- 100
2019-11-11 17:00:00 5.4 10 Norte 18 Norte 0 -- -- 100
2019-11-11 16:00:00 5.6 13 Norte 22 Norte 0 -- -- 100
2019-11-11 15:00:00 5.8 13 Norte 27 Norte 0.2 -- -- 100
2019-11-11 14:00:00 6.1 17 Oeste 27 Sudoeste 0 -- -- 100
2019-11-11 13:00:00 5.8 18 Oeste 34 Oeste 0 -- -- 100
2019-11-11 12:00:00 5.3 23 Sudoeste 39 Sudoeste 0 -- -- 100
2019-11-11 11:00:00 4.4 23 Sudoeste 36 Sudoeste 0.2 -- -- 100
2019-11-11 10:00:00 3.5 22 Sudoeste 33 Sudoeste 0 -- -- 100
2019-11-11 09:00:00 2.8 14 Sudoeste 21 Sudoeste 0.2 -- -- 100
2019-11-11 08:00:00 2.4 13 Sudoeste 25 Sudoeste 0 -- -- 100
2019-11-11 07:00:00 1.9 14 Sudoeste 22 Sudoeste 0.4 -- -- 100
2019-11-11 06:00:00 1.6 12 Sudoeste 17 Sudoeste 0.2 -- -- 100
2019-11-11 05:00:00 1.3 8 Sudoeste 17 Sudoeste 0.2 -- -- 100
2019-11-11 04:00:00 1 9 Sudoeste 14 Sudoeste 0 -- -- 100
2019-11-11 03:00:00 0.6 9 Sudoeste 14 Sudoeste 0 -- -- 100
2019-11-11 02:00:00 0.8 9 Sudoeste 18 Sudoeste 0 -- -- 100
2019-11-11 01:00:00 0.9 11 Sudoeste 17 Sudoeste 0 -- -- 100
2019-11-11 00:00:00 0.9 11 Sudoeste 18 Sudoeste 0 -- -- 100